createdAt,value
2022-08-17T00:00:42.579Z,82.31
2022-08-17T00:03:39.159Z,82.00
2022-08-17T00:06:28.565Z,81.20
2022-08-17T00:09:18.335Z,81.22
2022-08-17T00:12:41.879Z,80.75
2022-08-17T00:15:13.779Z,80.75
2022-08-17T00:17:59.249Z,80.00
2022-08-17T00:20:45.261Z,79.76
2022-08-17T00:23:31.472Z,79.97
2022-08-17T00:26:45.238Z,79.29
2022-08-17T00:29:25.404Z,79.17
2022-08-17T00:33:14.209Z,78.46
2022-08-17T00:35:23.716Z,78.60
2022-08-17T00:38:12.127Z,78.48
2022-08-17T00:41:02.016Z,77.88
2022-08-17T00:43:54.776Z,77.45
2022-08-17T00:46:42.850Z,77.90
2022-08-17T00:49:31.805Z,77.57
2022-08-17T00:52:21.708Z,77.49
2022-08-17T00:55:09.189Z,77.54
2022-08-17T00:57:58.724Z,76.91
2022-08-17T01:00:46.179Z,77.18
2022-08-17T01:03:33.021Z,76.41
2022-08-17T01:06:21.626Z,76.33
2022-08-17T01:09:09.002Z,76.36
2022-08-17T01:11:55.668Z,76.50
2022-08-17T01:14:41.639Z,76.38
2022-08-17T01:17:28.588Z,76.54
2022-08-17T01:20:14.362Z,76.58
2022-08-17T01:23:01.489Z,76.02
2022-08-17T01:25:50.959Z,76.17
2022-08-17T01:28:54.136Z,76.11
2022-08-17T01:31:45.618Z,75.85
2022-08-17T01:34:42.429Z,75.95
2022-08-17T01:37:34.581Z,75.99
2022-08-17T01:40:31.788Z,75.50
2022-08-17T01:43:23.557Z,75.71
2022-08-17T01:46:09.678Z,75.57
2022-08-17T01:48:57.711Z,75.25
2022-08-17T01:51:44.037Z,75.36
2022-08-17T01:54:30.029Z,75.36
2022-08-17T01:57:16.717Z,75.54
2022-08-17T02:00:06.583Z,75.18
2022-08-17T02:02:57.218Z,75.31
2022-08-17T02:05:42.994Z,75.23
2022-08-17T02:08:37.229Z,75.60
2022-08-17T02:11:25.644Z,75.60
2022-08-17T02:14:12.114Z,75.45
2022-08-17T02:16:58.659Z,75.59
2022-08-17T02:19:44.749Z,75.50
2022-08-17T02:22:31.232Z,75.43
2022-08-17T02:25:20.659Z,75.19
2022-08-17T02:28:10.917Z,75.01
2022-08-17T02:31:01.256Z,74.88
2022-08-17T02:34:00.324Z,74.90
2022-08-17T02:36:49.453Z,75.63
2022-08-17T02:39:35.318Z,77.36
2022-08-17T02:42:27.737Z,76.67
2022-08-17T02:45:17.624Z,75.91
2022-08-17T02:48:04.645Z,76.67
2022-08-17T02:50:50.544Z,76.99
2022-08-17T02:53:37.124Z,77.05
2022-08-17T02:56:22.743Z,77.10
2022-08-17T02:59:09.205Z,76.48
2022-08-17T03:01:55.214Z,76.66
2022-08-17T03:04:41.505Z,76.26
2022-08-17T03:07:27.472Z,76.27
2022-08-17T03:10:14.862Z,76.91
2022-08-17T03:13:01.951Z,77.63
2022-08-17T03:15:48.609Z,76.92
2022-08-17T03:18:35.042Z,76.60
2022-08-17T03:21:21.877Z,77.41
2022-08-17T03:24:09.209Z,77.89
2022-08-17T03:26:56.069Z,78.46
2022-08-17T03:29:42.303Z,79.11
2022-08-17T03:32:29.180Z,80.33
2022-08-17T03:35:18.005Z,80.19
2022-08-17T03:38:05.250Z,80.78
2022-08-17T03:40:56.238Z,81.25
2022-08-17T03:43:45.040Z,81.79
2022-08-17T03:46:49.993Z,82.53
2022-08-17T03:50:05.890Z,82.66
2022-08-17T03:53:10.721Z,83.06
2022-08-17T03:56:24.978Z,83.43
2022-08-17T03:59:21.113Z,82.81
2022-08-17T04:02:11.992Z,83.21
2022-08-17T04:04:58.992Z,83.67
2022-08-17T04:07:46.100Z,83.33
2022-08-17T04:10:33.285Z,83.63
2022-08-17T04:13:25.565Z,82.84
2022-08-17T04:16:11.503Z,82.53
2022-08-17T04:18:57.872Z,81.97
2022-08-17T04:21:43.737Z,81.05
2022-08-17T04:24:30.162Z,80.98
2022-08-17T04:27:16.082Z,80.51
2022-08-17T04:30:06.971Z,80.52
2022-08-17T04:33:05.725Z,79.67
2022-08-17T04:35:55.826Z,79.71
2022-08-17T04:38:43.095Z,79.10
2022-08-17T04:41:49.126Z,79.30
2022-08-17T04:44:37.545Z,79.55
2022-08-17T04:47:24.948Z,80.03
2022-08-17T04:50:11.738Z,79.47
2022-08-17T04:52:58.367Z,79.91
2022-08-17T04:55:44.821Z,79.51
2022-08-17T04:58:31.536Z,79.27
2022-08-17T05:01:23.337Z,79.63
2022-08-17T05:04:21.350Z,79.37
2022-08-17T05:07:23.977Z,79.15
2022-08-17T05:10:11.674Z,79.11
2022-08-17T05:12:59.711Z,78.27
2022-08-17T05:15:50.070Z,78.43
2022-08-17T05:18:38.896Z,78.07
2022-08-17T05:21:26.981Z,77.59
2022-08-17T05:24:38.713Z,76.74
2022-08-17T05:27:19.788Z,76.41
2022-08-17T05:30:06.611Z,76.43
2022-08-17T05:33:08.939Z,75.86
2022-08-17T05:35:57.843Z,75.62
2022-08-17T05:38:44.749Z,75.28
2022-08-17T05:41:31.742Z,75.16
2022-08-17T05:44:18.671Z,74.37
2022-08-17T05:47:05.975Z,74.22
2022-08-17T05:49:56.884Z,73.71
2022-08-17T05:52:53.910Z,73.22
2022-08-17T05:56:01.762Z,72.34
2022-08-17T05:59:03.830Z,71.90
2022-08-17T06:02:15.981Z,71.42
2022-08-17T06:05:25.023Z,71.62
2022-08-17T06:08:42.631Z,71.18
2022-08-17T06:11:39.811Z,70.86
2022-08-17T06:14:42.029Z,70.76
2022-08-17T06:17:29.904Z,70.65
2022-08-17T06:20:17.630Z,70.26
2022-08-17T06:23:05.965Z,69.53
2022-08-17T06:26:03.895Z,68.89
2022-08-17T06:28:57.452Z,68.35
2022-08-17T06:31:44.635Z,68.06
2022-08-17T06:34:33.883Z,67.46
2022-08-17T06:37:25.333Z,66.93
2022-08-17T06:40:26.750Z,66.31
2022-08-17T06:43:48.045Z,65.59
2022-08-17T06:46:42.000Z,65.24
2022-08-17T06:49:55.529Z,64.15
2022-08-17T06:52:53.252Z,63.64
2022-08-17T06:55:56.620Z,63.16
2022-08-17T06:58:45.823Z,62.79
2022-08-17T07:01:39.049Z,62.24
2022-08-17T07:04:34.023Z,62.00
2022-08-17T07:07:43.960Z,61.76
2022-08-17T07:10:44.647Z,61.54
2022-08-17T07:14:18.161Z,61.38
2022-08-17T07:17:11.288Z,61.19
2022-08-17T07:20:08.958Z,60.78
2022-08-17T07:23:25.628Z,60.22
2022-08-17T07:26:15.956Z,60.10
2022-08-17T07:29:03.959Z,59.94
2022-08-17T07:31:53.883Z,59.98
2022-08-17T07:35:01.703Z,59.25
2022-08-17T07:37:55.712Z,58.79
2022-08-17T07:40:59.399Z,58.84
2022-08-17T07:43:52.548Z,58.58
2022-08-17T07:47:10.588Z,57.53
2022-08-17T07:50:37.600Z,57.48
2022-08-17T07:53:26.781Z,57.21
2022-08-17T07:56:34.818Z,56.81
2022-08-17T07:59:33.376Z,56.17
2022-08-17T08:02:35.469Z,55.81
2022-08-17T08:05:31.715Z,55.83
2022-08-17T08:08:45.866Z,55.40
2022-08-17T08:11:43.746Z,55.38
2022-08-17T08:14:41.088Z,55.27
2022-08-17T08:17:47.194Z,54.63
2022-08-17T08:20:53.373Z,54.56
2022-08-17T08:24:13.530Z,53.74
2022-08-17T08:27:27.642Z,53.74
2022-08-17T08:30:22.625Z,53.50
2022-08-17T08:33:10.705Z,53.17
2022-08-17T08:36:12.281Z,52.80
2022-08-17T08:39:42.715Z,52.55
2022-08-17T08:43:10.372Z,52.11
2022-08-17T08:46:25.563Z,51.49
2022-08-17T08:50:01.876Z,50.97
2022-08-17T08:53:14.615Z,50.69
2022-08-17T08:56:14.978Z,50.43
2022-08-17T08:59:23.714Z,50.72
2022-08-17T09:02:39.024Z,50.31
2022-08-17T09:06:33.306Z,50.06
2022-08-17T09:09:21.009Z,50.43
2022-08-17T09:12:17.450Z,49.91
2022-08-17T09:15:14.313Z,50.38
2022-08-17T09:19:01.333Z,50.80
2022-08-17T09:21:54.563Z,51.06
2022-08-17T09:25:14.613Z,50.60
2022-08-17T09:28:19.499Z,50.79
2022-08-17T09:31:11.444Z,50.23
2022-08-17T09:34:11.444Z,50.56
2022-08-17T09:37:20.427Z,50.64
2022-08-17T09:40:29.109Z,50.70
2022-08-17T09:43:45.621Z,50.33
2022-08-17T09:46:45.758Z,50.57
2022-08-17T09:50:01.357Z,50.40
2022-08-17T09:52:51.415Z,50.49
2022-08-17T09:56:06.868Z,50.31
2022-08-17T09:59:25.457Z,49.88
2022-08-17T10:02:54.450Z,49.67
2022-08-17T10:05:57.547Z,49.94
2022-08-17T10:08:52.535Z,49.99
2022-08-17T10:12:13.310Z,50.04
2022-08-17T10:15:44.544Z,49.89
2022-08-17T10:19:09.458Z,49.84
2022-08-17T10:22:34.570Z,49.76
2022-08-17T10:26:00.532Z,50.16
2022-08-17T10:29:02.871Z,49.70
2022-08-17T10:32:03.548Z,49.67
2022-08-17T10:35:14.719Z,49.64
2022-08-17T10:38:25.965Z,49.29
2022-08-17T10:41:18.479Z,49.41
2022-08-17T10:44:38.120Z,48.62
2022-08-17T10:48:06.080Z,48.77
2022-08-17T10:50:58.130Z,48.71
2022-08-17T10:53:49.221Z,48.56
2022-08-17T10:56:43.406Z,48.45
2022-08-17T10:59:37.299Z,48.78
2022-08-17T11:02:31.495Z,48.53
2022-08-17T11:05:59.281Z,48.37
2022-08-17T11:09:02.028Z,47.95
2022-08-17T11:12:00.174Z,48.09
2022-08-17T11:15:12.073Z,47.90
2022-08-17T11:18:11.329Z,47.67
2022-08-17T11:21:12.635Z,47.78
2022-08-17T11:24:12.118Z,47.60
2022-08-17T11:27:17.165Z,47.33
2022-08-17T11:30:31.130Z,46.58
2022-08-17T11:33:29.687Z,46.35
2022-08-17T11:36:35.402Z,46.80
2022-08-17T11:39:28.236Z,46.52
2022-08-17T11:42:25.742Z,46.42
2022-08-17T11:45:37.081Z,45.74
2022-08-17T11:49:01.034Z,45.97
2022-08-17T11:52:01.159Z,46.26
2022-08-17T11:54:48.976Z,46.35
2022-08-17T11:57:40.630Z,46.26
2022-08-17T12:00:47.319Z,46.55
2022-08-17T12:03:34.126Z,46.29
2022-08-17T12:06:31.065Z,45.50
2022-08-17T12:09:25.011Z,45.50
2022-08-17T12:12:15.038Z,44.63
2022-08-17T12:15:10.524Z,43.68
2022-08-17T12:17:58.418Z,43.42
2022-08-17T12:20:45.601Z,43.32
2022-08-17T12:23:47.871Z,43.03
2022-08-17T12:26:36.974Z,43.12
2022-08-17T12:29:35.824Z,43.03
2022-08-17T12:32:30.927Z,42.40
2022-08-17T12:35:49.850Z,43.06
2022-08-17T12:38:41.903Z,42.70
2022-08-17T12:41:36.553Z,42.55
2022-08-17T12:44:30.066Z,42.00
2022-08-17T12:47:22.747Z,40.74
2022-08-17T12:50:28.711Z,40.79
2022-08-17T12:53:25.985Z,40.89
2022-08-17T12:56:13.891Z,41.06
2022-08-17T12:59:02.352Z,41.02
2022-08-17T13:01:50.530Z,40.86
2022-08-17T13:04:41.056Z,39.89
2022-08-17T13:07:30.906Z,39.97
2022-08-17T13:10:32.442Z,39.60
2022-08-17T13:13:26.767Z,39.46
2022-08-17T13:16:14.503Z,39.64
2022-08-17T13:19:15.061Z,39.64
2022-08-17T13:22:02.135Z,39.81
2022-08-17T13:25:04.099Z,39.46
2022-08-17T13:27:58.361Z,39.98
2022-08-17T13:30:45.903Z,40.08
2022-08-17T13:33:43.383Z,40.02
2022-08-17T13:36:33.985Z,40.31
2022-08-17T13:39:25.504Z,40.30
2022-08-17T13:42:52.731Z,39.93
2022-08-17T13:45:50.765Z,39.75
2022-08-17T13:48:37.917Z,39.56
2022-08-17T13:51:29.053Z,39.83
2022-08-17T13:54:34.935Z,39.92
2022-08-17T13:57:28.415Z,39.89
2022-08-17T14:00:30.941Z,39.91
2022-08-17T14:03:20.101Z,40.21
2022-08-17T14:06:07.800Z,40.34
2022-08-17T14:08:57.127Z,40.12
2022-08-17T14:11:47.796Z,40.36
2022-08-17T14:14:36.616Z,39.99
2022-08-17T14:17:24.356Z,39.99
2022-08-17T14:20:12.965Z,39.83
2022-08-17T14:22:59.811Z,39.95
2022-08-17T14:25:47.946Z,39.72
2022-08-17T14:28:36.392Z,39.66
2022-08-17T14:31:22.987Z,40.00
2022-08-17T14:34:10.663Z,39.91
2022-08-17T14:36:58.977Z,39.89
2022-08-17T14:39:54.886Z,40.10
2022-08-17T14:42:51.120Z,40.07
2022-08-17T14:45:37.842Z,40.22
2022-08-17T14:48:25.877Z,40.23
2022-08-17T14:51:18.806Z,40.60
2022-08-17T14:54:06.798Z,40.82
2022-08-17T14:57:15.567Z,40.97
2022-08-17T15:00:04.799Z,41.18
2022-08-17T15:02:54.723Z,41.19
2022-08-17T15:05:41.617Z,41.21
2022-08-17T15:08:28.811Z,40.98
2022-08-17T15:11:15.882Z,41.13
2022-08-17T15:14:03.824Z,41.15
2022-08-17T15:16:57.053Z,41.13
2022-08-17T15:20:06.075Z,41.02
2022-08-17T15:23:01.523Z,41.00
2022-08-17T15:25:51.117Z,40.98
2022-08-17T15:28:43.051Z,41.43
2022-08-17T15:31:47.694Z,41.23
2022-08-17T15:34:40.532Z,41.18
2022-08-17T15:37:35.001Z,41.35
2022-08-17T15:40:27.594Z,41.35
2022-08-17T15:43:51.508Z,41.55
2022-08-17T15:47:06.299Z,41.80
2022-08-17T15:50:09.692Z,41.86
2022-08-17T15:53:01.264Z,42.04
2022-08-17T15:55:52.338Z,42.21
2022-08-17T15:58:48.760Z,41.92
2022-08-17T16:03:01.178Z,42.42
2022-08-17T16:04:57.372Z,42.27
2022-08-17T16:07:50.756Z,42.23
2022-08-17T16:10:44.695Z,42.36
2022-08-17T16:13:36.552Z,42.30
2022-08-17T16:16:27.457Z,42.72
2022-08-17T16:19:18.403Z,42.64
2022-08-17T16:22:09.990Z,42.67
2022-08-17T16:25:08.490Z,42.80
2022-08-17T16:28:01.264Z,43.08
2022-08-17T16:30:47.682Z,42.64
2022-08-17T16:33:37.310Z,42.99
2022-08-17T16:36:55.110Z,42.94
2022-08-17T16:39:57.638Z,43.11
2022-08-17T16:42:49.564Z,43.02
2022-08-17T16:45:43.172Z,43.36
2022-08-17T16:48:30.452Z,43.12
2022-08-17T16:51:24.583Z,43.28
2022-08-17T16:54:15.928Z,43.46
2022-08-17T16:57:05.656Z,43.26
2022-08-17T16:59:53.634Z,43.41
2022-08-17T17:02:48.069Z,43.80
2022-08-17T17:05:46.170Z,43.46
2022-08-17T17:09:05.669Z,43.71
2022-08-17T17:12:03.870Z,43.72
2022-08-17T17:14:59.294Z,43.49
2022-08-17T17:17:49.826Z,43.80
2022-08-17T17:21:13.927Z,43.46
2022-08-17T17:24:07.481Z,43.52
2022-08-17T17:27:13.409Z,43.58
2022-08-17T17:30:41.662Z,43.59
2022-08-17T17:33:49.253Z,43.73
2022-08-17T17:36:51.578Z,44.14
2022-08-17T17:39:50.273Z,43.95
2022-08-17T17:42:40.458Z,44.20
2022-08-17T17:45:40.590Z,44.35
2022-08-17T17:48:30.239Z,44.62
2022-08-17T17:51:35.169Z,44.53
2022-08-17T17:55:04.439Z,44.75
2022-08-17T17:58:22.064Z,45.11
2022-08-17T18:01:26.120Z,45.28
2022-08-17T18:04:21.454Z,45.65
2022-08-17T18:07:27.256Z,45.97
2022-08-17T18:10:30.317Z,45.97
2022-08-17T18:13:36.409Z,46.25
2022-08-17T18:16:23.210Z,46.61
2022-08-17T18:19:21.229Z,47.13
2022-08-17T18:22:23.306Z,48.35
2022-08-17T18:25:43.991Z,48.51
2022-08-17T18:28:40.315Z,48.99
2022-08-17T18:31:27.071Z,48.66
2022-08-17T18:37:40.257Z,49.69
2022-08-17T18:40:36.192Z,49.92
2022-08-17T18:43:44.210Z,50.35
2022-08-17T18:46:43.844Z,50.38
2022-08-17T18:49:30.365Z,51.16
2022-08-17T18:52:33.751Z,51.60
2022-08-17T18:55:30.312Z,52.10
2022-08-17T18:58:20.501Z,52.12
2022-08-17T19:01:06.528Z,52.65
2022-08-17T19:03:52.801Z,52.53
2022-08-17T19:06:39.795Z,52.80
2022-08-17T19:09:47.517Z,53.41
2022-08-17T19:12:47.614Z,53.85
2022-08-17T19:15:38.691Z,53.94
2022-08-17T19:18:30.559Z,54.34
2022-08-17T19:21:26.317Z,54.40
2022-08-17T19:24:20.288Z,54.43
2022-08-17T19:27:34.927Z,55.26
2022-08-17T19:30:53.093Z,55.42
2022-08-17T19:33:52.281Z,55.74
2022-08-17T19:36:57.562Z,56.52
2022-08-17T19:40:08.733Z,56.91
2022-08-17T19:43:13.723Z,57.46
2022-08-17T19:46:08.745Z,56.90
2022-08-17T19:49:22.414Z,57.35
2022-08-17T19:52:37.725Z,57.17
2022-08-17T19:55:44.180Z,57.76
2022-08-17T19:58:52.058Z,57.69
2022-08-17T20:01:45.484Z,57.63
2022-08-17T20:04:42.400Z,58.15
2022-08-17T20:07:46.556Z,58.21
2022-08-17T20:10:47.369Z,58.70
2022-08-17T20:14:00.254Z,58.79
2022-08-17T20:16:47.487Z,58.96
2022-08-17T20:19:52.363Z,59.68
2022-08-17T20:22:59.589Z,60.09
2022-08-17T20:26:10.319Z,59.74
2022-08-17T20:29:06.134Z,60.09
2022-08-17T20:31:55.406Z,60.15
2022-08-17T20:34:45.529Z,60.41
2022-08-17T20:37:34.324Z,60.43
2022-08-17T20:40:26.103Z,60.71
2022-08-17T20:43:34.258Z,61.14
2022-08-17T20:46:41.858Z,61.52
2022-08-17T20:49:57.818Z,61.42
2022-08-17T20:52:54.191Z,61.95
2022-08-17T20:55:52.294Z,61.97
2022-08-17T20:58:46.600Z,62.44
2022-08-17T21:01:39.886Z,62.76
2022-08-17T21:05:07.317Z,62.92
2022-08-17T21:08:00.567Z,63.21
2022-08-17T21:10:47.472Z,63.37
2022-08-17T21:13:36.651Z,63.96
2022-08-17T21:16:27.110Z,64.49
2022-08-17T21:19:19.442Z,64.63
2022-08-17T21:22:21.272Z,64.56
2022-08-17T21:25:26.391Z,65.25
2022-08-17T21:28:33.979Z,65.65
2022-08-17T21:31:40.273Z,65.66
2022-08-17T21:34:29.118Z,65.68
2022-08-17T21:37:33.374Z,66.28
2022-08-17T21:40:27.456Z,66.45
2022-08-17T21:43:27.109Z,66.38
2022-08-17T21:46:29.505Z,66.27
2022-08-17T21:49:19.383Z,65.96
2022-08-17T21:52:07.762Z,66.42
2022-08-17T21:54:57.744Z,66.92
2022-08-17T21:57:53.176Z,67.35
2022-08-17T22:01:22.811Z,68.05
2022-08-17T22:04:15.251Z,67.84
2022-08-17T22:07:09.950Z,67.89
2022-08-17T22:09:56.213Z,68.11
2022-08-17T22:13:05.265Z,68.82
2022-08-17T22:16:29.067Z,68.71
2022-08-17T22:19:15.930Z,69.03
2022-08-17T22:22:05.064Z,68.94
2022-08-17T22:24:56.845Z,68.91
2022-08-17T22:28:11.016Z,69.43
2022-08-17T22:31:02.416Z,69.47
2022-08-17T22:34:09.968Z,70.03
2022-08-17T22:37:27.511Z,70.30
2022-08-17T22:40:26.157Z,69.99
2022-08-17T22:43:13.074Z,69.74
2022-08-17T22:46:00.265Z,69.72
2022-08-17T22:48:50.271Z,69.82
2022-08-17T22:51:43.061Z,70.58
2022-08-17T22:54:48.119Z,70.69
2022-08-17T22:58:07.944Z,70.83
2022-08-17T23:00:54.060Z,70.69
2022-08-17T23:03:54.170Z,71.30
2022-08-17T23:06:44.027Z,71.17
2022-08-17T23:09:30.939Z,71.50
2022-08-17T23:12:23.920Z,71.92
2022-08-17T23:15:14.846Z,71.90
2022-08-17T23:18:04.928Z,72.44
2022-08-17T23:20:51.922Z,72.47
2022-08-17T23:23:39.314Z,72.71
2022-08-17T23:26:27.868Z,72.97
2022-08-17T23:29:14.878Z,73.13
2022-08-17T23:32:04.899Z,73.58
2022-08-17T23:34:51.143Z,74.17
2022-08-17T23:37:38.219Z,74.46
2022-08-17T23:40:24.881Z,74.83
2022-08-17T23:43:23.881Z,74.22
2022-08-17T23:46:11.886Z,74.63
2022-08-17T23:48:59.790Z,74.76
2022-08-17T23:51:46.835Z,75.06
2022-08-17T23:54:38.955Z,75.25
2022-08-17T23:57:33.842Z,75.20
